Patriot — WDG9802 — position and weather

sailwx.info

Track history (hours):
 
Tides and Currents Weather Stations Pressure Air Temp Water Temp Dewpoint Dewpoint Depression Visibility Wind Speed Wind Dir Waves Ship Positions

Patriot

Owner: Marine Towing of Tampa LLC, Tampa, FL. More information available from US FCC via Universal Licensing System and Coast Guard Vessel Documentation Center.

Last reported at 2018-May-15 14:21 UTC. Time now 2018-Jun-24 18:51 UTC.
Position N 27°54' W 082°26'.
Warning: this ship's position is 40 days out of date.

Length 28 m; draft 17 m.

Type: Tug. MMSI: 367591250.

Date/timePositionNaut miles runAvg speedWind from/ knotsBaromVisibWave heightAir tempDewpointWater temp
2018-May-15 14:21N 27°54' W 082°26'2 5.6
2018-May-15 14:01N 27°56' W 082°26'0 0.0
2018-May-15 13:31N 27°56' W 082°26'0 0.0
2018-May-15 13:01N 27°56' W 082°26'0 0.0
2018-May-15 12:31N 27°56' W 082°26'0 0.0
2018-May-15 12:01N 27°56' W 082°26'1 1.5
2018-May-15 11:30N 27°55' W 082°26'1 2.4
2018-May-15 11:00N 27°54' W 082°26'0 0.6
2018-May-15 10:31N 27°54' W 082°26'1 1.6
2018-May-15 10:01N 27°53' W 082°26'3 5.4
2018-May-15 09:31N 27°56' W 082°26'0 0.0
2018-May-15 09:01N 27°56' W 082°26'0 0.0
2018-May-15 08:31N 27°56' W 082°26'0 0.0
2018-May-15 08:00N 27°56' W 082°26'0 0.0
2018-May-15 07:31N 27°56' W 082°26'0 0.0
2018-May-15 07:01N 27°56' W 082°26'0 0.0
2018-May-15 06:31N 27°56' W 082°26'0 0.0
2018-May-15 06:01N 27°56' W 082°26'0 0.0
2018-May-15 05:31N 27°56' W 082°26'0 0.0
2018-May-15 05:01N 27°56' W 082°26'0 0.0
2018-May-15 04:31N 27°56' W 082°26'0 0.0
2018-May-15 04:01N 27°56' W 082°26'0 0.0
2018-May-15 03:31N 27°56' W 082°26'0 0.0
2018-May-15 03:01N 27°56' W 082°26'0 0.0
2018-May-15 02:31N 27°56' W 082°26'0 0.0
2018-May-15 02:01N 27°56' W 082°26'0 0.0
2018-May-15 01:30N 27°56' W 082°26'0 0.0
2018-May-15 01:01N 27°56' W 082°26'0 0.0
2018-May-15 00:31N 27°56' W 082°26'0 0.0
2018-May-15 00:01N 27°56' W 082°26'0 0.0
2018-May-14 23:31N 27°56' W 082°26'0 0.0
2018-May-14 23:01N 27°56' W 082°26'0 0.0
2018-May-14 22:31N 27°56' W 082°26'0 0.0
2018-May-14 22:01N 27°56' W 082°26'0 0.0
2018-May-14 21:31N 27°56' W 082°26'0 0.0
2018-May-14 21:01N 27°56' W 082°26'0 0.0
2018-May-14 20:31N 27°56' W 082°26'0 0.2
2018-May-14 20:00N 27°56' W 082°26'0 0.4
2018-May-14 19:31N 27°56' W 082°26'1 2.9
2018-May-14 19:01N 27°54' W 082°26'1 1.2
2018-May-14 18:31N 27°54' W 082°25'1 1.2
2018-May-14 18:01N 27°54' W 082°26'2 3.4
2018-May-14 17:31N 27°56' W 082°26'0 0.0
2018-May-14 17:01N 27°56' W 082°26'0 0.0
2018-May-14 16:31N 27°56' W 082°26'0 0.0
2018-May-14 16:01N 27°56' W 082°26'0 0.0
2018-May-14 15:31N 27°56' W 082°26'0 0.0
2018-May-14 15:01N 27°56' W 082°26'0 0.0
2018-May-14 14:31N 27°56' W 082°26'0 0.0
2018-May-14 14:01N 27°56' W 082°26'0 0.0
2018-May-14 13:30N 27°56' W 082°26'0 0.0
2018-May-14 13:01N 27°56' W 082°26'0 0.0
2018-May-14 12:31N 27°56' W 082°26'0 0.0
2018-May-14 12:01N 27°56' W 082°26'0 0.0
2018-May-14 11:31N 27°56' W 082°26'0 0.0
2018-May-14 11:00N 27°56' W 082°26'0 0.0
2018-May-14 10:31N 27°56' W 082°26'0 0.0
2018-May-14 10:01N 27°56' W 082°26'0 0.0
2018-May-14 09:31N 27°56' W 082°26'0 0.0
2018-May-14 09:01N 27°56' W 082°26'0 0.0
2018-May-14 08:31N 27°56' W 082°26'0 0.0
2018-May-14 08:01N 27°56' W 082°26'0 0.0
2018-May-14 07:31N 27°56' W 082°26'0 0.0
2018-May-14 07:01N 27°56' W 082°26'0 0.0
2018-May-14 06:31N 27°56' W 082°26'0 0.0
2018-May-14 06:00N 27°56' W 082°26'0 0.0
2018-May-14 05:31N 27°56' W 082°26'1 1.8
2018-May-14 04:59N 27°55' W 082°27'2 3.1
2018-May-14 04:31N 27°57' W 082°27'0 0.8
2018-May-14 04:00N 27°56' W 082°27'2 4.1
2018-May-14 03:30N 27°54' W 082°26'1 2.6
2018-May-14 03:00N 27°53' W 082°26'1 2.9
2018-May-14 02:30N 27°55' W 082°26'0 0.0
2018-May-14 02:01N 27°55' W 082°26'0 0.0
2018-May-14 01:31N 27°55' W 082°26'0 0.0
2018-May-14 01:01N 27°55' W 082°26'0 0.0
2018-May-14 00:31N 27°55' W 082°26'1 1.9
2018-May-14 00:01N 27°55' W 082°27'2 4.7
2018-May-13 23:31N 27°53' W 082°26'510.8
2018-May-13 23:01N 27°48' W 082°29'510.1
2018-May-13 22:31N 27°44' W 082°32'6 9.4
2018-May-13 21:54N 27°39' W 082°35'2 0.9
2018-May-13 19:33N 27°41' W 082°35'112.2
2018-May-13 19:29N 27°42' W 082°34'611.6
2018-May-13 19:00N 27°47' W 082°31'4 8.4
2018-May-13 18:31N 27°50' W 082°34'2 3.4
2018-May-13 18:01N 27°52' W 082°33'0 0.3
2018-May-13 17:31N 27°52' W 082°33'0 0.0
2018-May-13 17:01N 27°52' W 082°33'0 0.0
2018-May-13 16:31N 27°52' W 082°33'0 0.0
2018-May-13 16:01N 27°52' W 082°33'0 0.0
2018-May-13 15:31N 27°52' W 082°33'0 0.0
2018-May-13 15:01N 27°52' W 082°33'0 0.0
2018-May-13 14:31N 27°52' W 082°33'0 0.0
2018-May-13 14:00N 27°52' W 082°33'0 0.0
2018-May-13 13:31N 27°52' W 082°33'0 0.0
2018-May-13 13:01N 27°52' W 082°33'0 0.0
2018-May-13 12:31N 27°52' W 082°33'0 0.0
2018-May-13 12:01N 27°52' W 082°33'0 0.0
2018-May-13 11:31N 27°52' W 082°33'0 0.0
2018-May-13 11:01N 27°52' W 082°33'0 0.0
2018-May-13 10:30N 27°52' W 082°33'0 0.0
2018-May-13 10:01N 27°52' W 082°33'0 0.0
2018-May-13 09:31N 27°52' W 082°33'0 0.0
2018-May-13 09:01N 27°52' W 082°33'0 0.0
2018-May-13 08:31N 27°52' W 082°33'0 0.0
2018-May-13 08:01N 27°52' W 082°33'0 0.0
2018-May-13 07:31N 27°52' W 082°33'0 0.0
2018-May-13 07:01N 27°52' W 082°33'0 0.0
2018-May-13 06:31N 27°52' W 082°33'0 0.0
2018-May-13 06:00N 27°52' W 082°33'0 0.0
2018-May-13 05:31N 27°52' W 082°33'0 0.0
2018-May-13 05:01N 27°52' W 082°33'0 0.0
2018-May-13 04:31N 27°52' W 082°33'0 0.0
2018-May-13 04:00N 27°52' W 082°33'0 0.0
2018-May-13 03:31N 27°52' W 082°33'0 0.0
2018-May-13 03:01N 27°52' W 082°33'0 0.0
2018-May-13 02:30N 27°52' W 082°33'0 0.0
2018-May-13 02:01N 27°52' W 082°33'0 0.0
2018-May-13 01:31N 27°52' W 082°33'0 0.0
2018-May-13 01:01N 27°52' W 082°33'0 0.0
2018-May-13 00:31N 27°52' W 082°33'0 0.0
2018-May-13 00:01N 27°52' W 082°33'0 0.0
2018-May-12 23:31N 27°52' W 082°33'0 0.0
2018-May-12 23:01N 27°52' W 082°33'0 0.0
2018-May-12 22:31N 27°52' W 082°33'0 0.0
2018-May-12 22:00N 27°52' W 082°33'0 0.0
2018-May-12 21:31N 27°52' W 082°33'0 0.0
2018-May-12 21:01N 27°52' W 082°33'0 0.0
2018-May-12 20:31N 27°52' W 082°33'0 0.0
2018-May-12 20:01N 27°52' W 082°33'0 0.0
2018-May-12 19:31N 27°52' W 082°33'0 0.0
2018-May-12 19:01N 27°52' W 082°33'0 0.2
2018-May-12 18:31N 27°52' W 082°33'0 0.7
2018-May-12 18:01N 27°52' W 082°33'3 5.3
2018-May-12 17:30N 27°49' W 082°34'4 8.5
2018-May-12 17:01N 27°48' W 082°30'5 9.6
2018-May-12 16:30N 27°52' W 082°27'3 6.9
2018-May-12 16:01N 27°55' W 082°27'0 0.1
2018-May-12 15:30N 27°55' W 082°27'0 0.0
2018-May-12 15:01N 27°55' W 082°27'1 2.5
2018-May-12 14:31N 27°56' W 082°26'0 0.0
2018-May-12 14:00N 27°56' W 082°26'0 0.0
2018-May-12 13:30N 27°56' W 082°26'0 0.0
2018-May-12 13:01N 27°56' W 082°26'0 0.0
2018-May-12 12:30N 27°56' W 082°26'0 0.0
2018-May-12 12:01N 27°56' W 082°26'0 0.0
2018-May-12 11:30N 27°56' W 082°26'0 0.0
2018-May-12 11:00N 27°56' W 082°26'0 0.0
2018-May-12 10:31N 27°56' W 082°26'0 0.0
2018-May-12 10:01N 27°56' W 082°26'0 0.0
2018-May-12 09:31N 27°56' W 082°26'0 0.0
2018-May-12 09:01N 27°56' W 082°26'0 0.0
2018-May-12 08:30N 27°56' W 082°26'0 0.0
2018-May-12 08:01N 27°56' W 082°26'0 0.0
2018-May-12 07:30N 27°56' W 082°26'0 0.0
2018-May-12 07:01N 27°56' W 082°26'0 0.0
2018-May-12 06:30N 27°56' W 082°26'0 0.0
2018-May-12 06:00N 27°56' W 082°26'0 0.0
2018-May-12 05:31N 27°56' W 082°26'0 0.0
2018-May-12 05:01N 27°56' W 082°26'0 0.0
2018-May-12 04:31N 27°56' W 082°26'0 0.0
2018-May-12 04:01N 27°56' W 082°26'0 0.0
2018-May-12 03:31N 27°56' W 082°26'0 0.0
2018-May-12 03:00N 27°56' W 082°26'0 0.0
2018-May-12 02:31N 27°56' W 082°26'0 0.0
2018-May-12 02:00N 27°56' W 082°26'0 0.0
2018-May-12 01:31N 27°56' W 082°26'0 0.0
2018-May-12 01:01N 27°56' W 082°26'0 0.0
2018-May-12 00:31N 27°56' W 082°26'0 0.0
2018-May-12 00:01N 27°56' W 082°26'0 0.0
2018-May-11 23:31N 27°56' W 082°26'0 0.0
2018-May-11 23:01N 27°56' W 082°26'0 0.0
2018-May-11 22:30N 27°56' W 082°26'0 0.0
2018-May-11 22:01N 27°56' W 082°26'0 0.0
2018-May-11 21:31N 27°56' W 082°26'0 0.0
2018-May-11 21:01N 27°56' W 082°26'0 0.0
2018-May-11 20:31N 27°56' W 082°26'0 0.0
2018-May-11 20:01N 27°56' W 082°26'0 0.0
2018-May-11 19:30N 27°56' W 082°26'0 0.0
2018-May-11 19:00N 27°56' W 082°26'0 0.0
2018-May-11 18:31N 27°56' W 082°26'0 0.0
2018-May-11 18:01N 27°56' W 082°26'0 0.0
2018-May-11 17:31N 27°56' W 082°26'0 0.0
2018-May-11 17:01N 27°56' W 082°26'0 0.0
2018-May-11 16:31N 27°56' W 082°26'0 0.0
2018-May-11 16:00N 27°56' W 082°26'0 0.0
2018-May-11 15:30N 27°56' W 082°26'0 0.0
2018-May-11 15:00N 27°56' W 082°26'0 0.0
2018-May-11 14:31N 27°56' W 082°26'0 0.0
2018-May-11 14:00N 27°56' W 082°26'0 0.2
2018-May-11 13:31N 27°56' W 082°26'2 3.6
2018-May-11 13:00N 27°54' W 082°25'0 0.0
2018-May-11 12:31N 27°54' W 082°25'4 7.0
2018-May-11 12:00N 27°51' W 082°26'2 4.7
2018-May-11 11:30N 27°51' W 082°24'0 0.1
2018-May-11 11:00N 27°51' W 082°24'2 4.6
2018-May-11 10:31N 27°51' W 082°26'1 2.2
2018-May-11 10:01N 27°50' W 082°27'4 7.2
2018-May-11 09:30N 27°54' W 082°26'1 2.0
2018-May-11 09:01N 27°55' W 082°26'0 0.0
2018-May-11 08:31N 27°55' W 082°26'0 0.0
2018-May-11 08:01N 27°55' W 082°26'0 0.0
2018-May-11 07:31N 27°55' W 082°26'1 1.5
2018-May-11 07:00N 27°54' W 082°26'0 0.8
2018-May-11 06:31N 27°54' W 082°25'2 3.9
2018-May-11 06:01N 27°56' W 082°26'0 0.0
2018-May-11 05:30N 27°56' W 082°26'0 0.0
2018-May-11 05:01N 27°56' W 082°26'0 0.0
2018-May-11 04:30N 27°56' W 082°26'0 0.0
2018-May-11 04:01N 27°56' W 082°26'0 0.0
2018-May-11 03:31N 27°56' W 082°26'0 0.0
2018-May-11 03:01N 27°56' W 082°26'0 0.0
2018-May-11 02:31N 27°56' W 082°26'0 0.0
2018-May-11 02:01N 27°56' W 082°26'0 0.0
2018-May-11 01:30N 27°56' W 082°26'0 0.0
2018-May-11 01:01N 27°56' W 082°26'0 0.0
2018-May-11 00:30N 27°56' W 082°26'0 0.0
2018-May-11 00:01N 27°56' W 082°26'2 3.4
2018-May-10 23:31N 27°54' W 082°26'2 4.1
2018-May-10 23:01N 27°56' W 082°27'0 0.7
2018-May-10 22:31N 27°56' W 082°27'0 0.2
2018-May-10 22:01N 27°56' W 082°27'0 0.0
2018-May-10 21:31N 27°56' W 082°27'1 1.6
2018-May-10 21:01N 27°57' W 082°27'0 0.2
2018-May-10 20:31N 27°57' W 082°27'0 0.0
2018-May-10 20:01N 27°57' W 082°27'0 0.0
2018-May-10 19:30N 27°57' W 082°27'2 3.3
2018-May-10 19:01N 27°55' W 082°27'1 2.1
2018-May-10 18:31N 27°56' W 082°26'0 0.0
2018-May-10 18:01N 27°56' W 082°26'0 0.0
2018-May-10 17:30N 27°56' W 082°26'0 0.0
2018-May-10 17:01N 27°56' W 082°26'0 0.0
2018-May-10 16:31N 27°56' W 082°26'0 0.0
2018-May-10 16:01N 27°56' W 082°26'0 0.0
2018-May-10 15:31N 27°56' W 082°26'0 0.0
2018-May-10 15:01N 27°56' W 082°26'0 0.0
2018-May-10 14:31N 27°56' W 082°26'0 0.0
2018-May-10 14:00N 27°56' W 082°26'0 0.0
2018-May-10 13:31N 27°56' W 082°26'0 0.0
2018-May-10 13:01N 27°56' W 082°26'0 0.0
2018-May-10 12:30N 27°56' W 082°26'0 0.0
2018-May-10 12:00N 27°56' W 082°26'0 0.0
2018-May-10 11:31N 27°56' W 082°26'0 0.0
2018-May-10 11:00N 27°56' W 082°26'0 0.0
2018-May-10 10:31N 27°56' W 082°26'0 0.0
2018-May-10 10:01N 27°56' W 082°26'0 0.0
2018-May-10 09:31N 27°56' W 082°26'0 0.0
2018-May-10 09:00N 27°56' W 082°26'0 0.0
2018-May-10 08:31N 27°56' W 082°26'0 0.0
2018-May-10 08:01N 27°56' W 082°26'0 0.0
2018-May-10 07:31N 27°56' W 082°26'0 0.0
2018-May-10 07:01N 27°56' W 082°26'0 0.0
2018-May-10 06:31N 27°56' W 082°26'0 0.0
2018-May-10 06:01N 27°56' W 082°26'0 0.0
2018-May-10 05:31N 27°56' W 082°26'0 0.0
2018-May-10 05:01N 27°56' W 082°26'0 0.0
2018-May-10 04:31N 27°56' W 082°26'0 0.0
2018-May-10 04:01N 27°56' W 082°26'1 2.2
2018-May-10 03:31N 27°55' W 082°26'2 3.6
2018-May-10 03:01N 27°56' W 082°27'1 1.1
2018-May-10 02:31N 27°57' W 082°27'0 0.8
2018-May-10 02:01N 27°57' W 082°27'0 0.4
2018-May-10 01:31N 27°56' W 082°27'1 1.3
2018-May-10 01:01N 27°56' W 082°27'1 1.9
2018-May-10 00:30N 27°57' W 082°27'0 0.0
2018-May-10 00:00N 27°57' W 082°27'0 0.0
2018-May-09 23:31N 27°57' W 082°27'1 1.4
2018-May-09 23:01N 27°56' W 082°27'0 0.1
2018-May-09 22:30N 27°56' W 082°27'1 1.8
2018-May-09 22:01N 27°55' W 082°27'0 0.4
2018-May-09 21:30N 27°55' W 082°27'0 0.9
2018-May-09 21:01N 27°55' W 082°26'0 0.0
2018-May-09 20:31N 27°55' W 082°26'0 0.0
2018-May-09 20:01N 27°55' W 082°26'0 0.0
2018-May-09 19:31N 27°55' W 082°26'0 0.0
2018-May-09 19:01N 27°55' W 082°26'1 2.7
2018-May-09 18:31N 27°53' W 082°26'5 9.3
2018-May-09 18:00N 27°49' W 082°27'4 8.8
2018-May-09 17:31N 27°46' W 082°31'6 9.9
2018-May-09 16:55N 27°41' W 082°34'3 6.4
2018-May-09 16:28N 27°38' W 082°34'0 0.0
2018-May-09 14:56N 27°38' W 082°34'0 0.3
2018-May-09 13:27N 27°38' W 082°34'0 0.0
2018-May-09 12:53N 27°38' W 082°34'3 2.9
2018-May-09 11:50N 27°41' W 082°35'3 9.8
2018-May-09 11:31N 27°43' W 082°33'4 8.7
2018-May-09 11:00N 27°47' W 082°32'4 7.7
2018-May-09 10:31N 27°51' W 082°34'1 2.8
2018-May-09 10:00N 27°52' W 082°33'0 0.1
2018-May-09 09:31N 27°52' W 082°33'0 0.0
2018-May-09 09:01N 27°52' W 082°33'0 0.0
2018-May-09 08:31N 27°52' W 082°33'0 0.0
2018-May-09 08:01N 27°52' W 082°33'0 0.0
2018-May-09 07:31N 27°52' W 082°33'0 0.0
2018-May-09 07:01N 27°52' W 082°33'0 0.0
2018-May-09 06:30N 27°52' W 082°33'0 0.0
2018-May-09 06:01N 27°52' W 082°33'0 0.0
2018-May-09 05:30N 27°52' W 082°33'0 0.0
2018-May-09 05:01N 27°52' W 082°33'0 0.0
2018-May-09 04:30N 27°52' W 082°33'0 0.0
2018-May-09 04:01N 27°52' W 082°33'0 0.5
2018-May-09 03:30N 27°52' W 082°33'4 8.7
2018-May-09 03:00N 27°47' W 082°33'510.8
2018-May-09 02:31N 27°48' W 082°28'510.8
2018-May-09 02:01N 27°54' W 082°26'1 2.9
2018-May-09 01:31N 27°55' W 082°27'0 0.4
2018-May-09 01:01N 27°55' W 082°27'2 4.1
2018-May-09 00:31N 27°53' W 082°27'1 1.9
2018-May-09 00:00N 27°54' W 082°26'2 4.4
2018-May-08 23:31N 27°56' W 082°26'0 0.0
2018-May-08 23:01N 27°56' W 082°26'0 0.0
2018-May-08 22:31N 27°56' W 082°26'0 0.0
2018-May-08 22:01N 27°56' W 082°26'0 0.0
2018-May-08 21:30N 27°56' W 082°26'0 0.0
2018-May-08 21:01N 27°56' W 082°26'0 0.0
2018-May-08 20:31N 27°56' W 082°26'0 0.0
2018-May-08 20:01N 27°56' W 082°26'0 0.0
2018-May-08 19:31N 27°56' W 082°26'0 0.0
2018-May-08 19:01N 27°56' W 082°26'0 0.0
2018-May-08 18:31N 27°56' W 082°26'0 0.0
2018-May-08 18:01N 27°56' W 082°26'0 0.0
2018-May-08 17:30N 27°56' W 082°26'0 0.0
2018-May-08 17:01N 27°56' W 082°26'0 0.0
2018-May-08 16:31N 27°56' W 082°26'1 1.8
2018-May-08 16:00N 27°55' W 082°26'2 3.2
2018-May-08 15:30N 27°57' W 082°27'1 1.2
2018-May-08 15:01N 27°57' W 082°27'0 0.2
2018-May-08 14:31N 27°57' W 082°27'2 3.8
2018-May-08 14:01N 27°55' W 082°27'0 0.2
2018-May-08 13:30N 27°55' W 082°27'1 1.7
2018-May-08 13:01N 27°55' W 082°26'1 1.3
2018-May-08 12:30N 27°56' W 082°26'511.0
2018-May-08 12:01N 27°50' W 082°27'510.7
2018-May-08 11:30N 27°47' W 082°32'4 8.1
2018-May-08 11:01N 27°51' W 082°34'1 2.7
2018-May-08 10:30N 27°52' W 082°33'0 0.2
2018-May-08 10:01N 27°52' W 082°33'0 0.4
2018-May-08 09:30N 27°52' W 082°33'0 0.0
2018-May-08 09:00N 27°52' W 082°33'0 0.0
2018-May-08 08:31N 27°52' W 082°33'0 0.0
2018-May-08 08:01N 27°52' W 082°33'0 0.0
2018-May-08 07:29N 27°52' W 082°33'0 0.0
2018-May-08 07:00N 27°52' W 082°33'0 0.0
2018-May-08 06:31N 27°52' W 082°33'0 0.0
2018-May-08 06:00N 27°52' W 082°33'0 0.0
2018-May-08 05:31N 27°52' W 082°33'0 0.0
2018-May-08 05:01N 27°52' W 082°33'0 0.0
2018-May-08 04:31N 27°52' W 082°33'0 0.0
2018-May-08 04:00N 27°52' W 082°33'0 0.0
2018-May-08 03:30N 27°52' W 082°33'0 0.0
2018-May-08 03:01N 27°52' W 082°33'0 0.0
2018-May-08 02:31N 27°52' W 082°33'0 0.0
2018-May-08 02:01N 27°52' W 082°33'0 0.0
2018-May-08 01:31N 27°52' W 082°33'0 0.0
2018-May-08 01:01N 27°52' W 082°33'0 0.4
2018-May-08 00:31N 27°52' W 082°33'1 1.3
2018-May-08 00:01N 27°51' W 082°33'3 6.9
2018-May-07 23:30N 27°48' W 082°34'611.4
2018-May-07 22:59N 27°48' W 082°28'611.9
2018-May-07 22:30N 27°54' W 082°26'1 2.3
2018-May-07 22:01N 27°55' W 082°27'0 0.0
2018-May-07 21:31N 27°55' W 082°27'1 1.3
2018-May-07 21:00N 27°54' W 082°26'5 9.7
2018-May-07 20:31N 27°50' W 082°27'510.3
2018-May-07 19:59N 27°47' W 082°32'4 7.6
2018-May-07 19:31N 27°51' W 082°34'1 2.5
2018-May-07 19:00N 27°52' W 082°33'0 0.8
2018-May-07 18:30N 27°51' W 082°33'5 9.5
2018-May-07 18:00N 27°47' W 082°36'5 9.2
2018-May-07 17:28N 27°42' W 082°37'5 0.9
2018-May-07 11:44N 27°38' W 082°34'0 0.4
2018-May-07 11:08N 27°38' W 082°34'2 4.3
2018-May-07 10:34N 27°40' W 082°36'0 0.1
2018-May-07 10:30N 27°40' W 082°36'0 0.2
2018-May-07 09:58N 27°39' W 082°36'0 0.5
2018-May-07 09:28N 27°40' W 082°36'1 0.6
2018-May-07 07:27N 27°39' W 082°35'1 0.1
2018-May-06 23:13N 27°38' W 082°34'2 0.8
2018-May-06 20:26N 27°40' W 082°36'410.7
2018-May-06 20:01N 27°43' W 082°32'4 8.6
2018-May-06 19:30N 27°47' W 082°33'4 8.6
2018-May-06 19:01N 27°52' W 082°33'0 0.7
2018-May-06 18:30N 27°52' W 082°33'0 0.1
2018-May-06 18:01N 27°52' W 082°33'2 3.7
2018-May-06 17:31N 27°50' W 082°34'2 4.2
2018-May-06 17:01N 27°48' W 082°34'4 7.5
2018-May-06 16:31N 27°45' W 082°31'7 9.2
2018-May-06 15:45N 27°40' W 082°36'2 1.1
2018-May-06 13:26N 27°38' W 082°34'3 2.2
2018-May-06 12:11N 27°40' W 082°36'311.0
2018-May-06 11:58N 27°42' W 082°33'511.3
2018-May-06 11:31N 27°47' W 082°31'510.7
2018-May-06 11:00N 27°50' W 082°27'510.6
2018-May-06 10:30N 27°55' W 082°26'1 1.6
2018-May-06 10:00N 27°56' W 082°26'0 0.0
2018-May-06 09:31N 27°56' W 082°26'0 0.0
2018-May-06 09:00N 27°56' W 082°26'0 0.0
2018-May-06 08:30N 27°56' W 082°26'0 0.0
2018-May-06 08:00N 27°56' W 082°26'0 0.0
2018-May-06 07:31N 27°56' W 082°26'0 0.0
2018-May-06 07:01N 27°56' W 082°26'0 0.0
2018-May-06 06:31N 27°56' W 082°26'0 0.0
2018-May-06 06:01N 27°56' W 082°26'0 0.0
2018-May-06 05:31N 27°56' W 082°26'0 0.0
2018-May-06 05:01N 27°56' W 082°26'0 0.0
2018-May-06 04:31N 27°56' W 082°26'0 0.0
2018-May-06 04:01N 27°56' W 082°26'0 0.0
2018-May-06 03:30N 27°56' W 082°26'0 0.0
2018-May-06 03:01N 27°56' W 082°26'0 0.0
2018-May-06 02:31N 27°56' W 082°26'0 0.0
2018-May-06 02:00N 27°56' W 082°26'0 0.0
2018-May-06 01:31N 27°56' W 082°26'0 0.0
2018-May-06 01:01N 27°56' W 082°26'0 0.0
2018-May-06 00:31N 27°56' W 082°26'0 0.0
2018-May-06 00:01N 27°56' W 082°26'0 0.0
2018-May-05 23:31N 27°56' W 082°26'0 0.0
2018-May-05 23:01N 27°56' W 082°26'0 0.0
2018-May-05 22:31N 27°56' W 082°26'0 0.0
2018-May-05 22:00N 27°56' W 082°26'0 0.0
2018-May-05 21:31N 27°56' W 082°26'0 0.0
2018-May-05 21:01N 27°56' W 082°26'0 0.0
2018-May-05 20:30N 27°56' W 082°26'2 3.9
2018-May-05 20:00N 27°54' W 082°25'0 0.1
2018-May-05 19:31N 27°54' W 082°25'1 1.2
2018-May-05 19:01N 27°54' W 082°26'1 2.9
2018-May-05 18:31N 27°53' W 082°26'2 4.2
2018-May-05 18:01N 27°55' W 082°27'0 0.1
2018-May-05 17:31N 27°55' W 082°27'0 0.0
2018-May-05 17:01N 27°55' W 082°27'1 1.7
2018-May-05 16:30N 27°55' W 082°26'0 0.0
2018-May-05 16:01N 27°55' W 082°26'0 0.0
2018-May-05 15:31N 27°55' W 082°26'0 0.0
2018-May-05 15:00N 27°55' W 082°26'0 0.0
2018-May-05 14:31N 27°55' W 082°26'  
Track history (hours):
 
Tides and Currents Weather Stations Pressure Air Temp Water Temp Dewpoint Dewpoint Depression Visibility Wind Speed Wind Dir Waves Ship Positions

Patriot

Owner: Marine Towing of Tampa LLC, Tampa, FL. More information available from US FCC via Universal Licensing System and Coast Guard Vessel Documentation Center.

Last reported at 2018-May-15 14:21 UTC. Time now 2018-Jun-24 18:51 UTC.
Position N 27°54' W 082°26'.
Warning: this ship's position is 40 days out of date.

Length 28 m; draft 17 m.

Type: Tug. MMSI: 367591250.

Date/timePositionNaut miles runAvg speedWind from/ knotsBaromVisibWave heightAir tempDewpointWater temp
2018-May-15 14:21N 27°54' W 082°26'2 5.6
2018-May-15 14:01N 27°56' W 082°26'0 0.0
2018-May-15 13:31N 27°56' W 082°26'0 0.0
2018-May-15 13:01N 27°56' W 082°26'0 0.0
2018-May-15 12:31N 27°56' W 082°26'0 0.0
2018-May-15 12:01N 27°56' W 082°26'1 1.5
2018-May-15 11:30N 27°55' W 082°26'1 2.4
2018-May-15 11:00N 27°54' W 082°26'0 0.6
2018-May-15 10:31N 27°54' W 082°26'1 1.6
2018-May-15 10:01N 27°53' W 082°26'3 5.4
2018-May-15 09:31N 27°56' W 082°26'0 0.0
2018-May-15 09:01N 27°56' W 082°26'0 0.0
2018-May-15 08:31N 27°56' W 082°26'0 0.0
2018-May-15 08:00N 27°56' W 082°26'0 0.0
2018-May-15 07:31N 27°56' W 082°26'0 0.0
2018-May-15 07:01N 27°56' W 082°26'0 0.0
2018-May-15 06:31N 27°56' W 082°26'0 0.0
2018-May-15 06:01N 27°56' W 082°26'0 0.0
2018-May-15 05:31N 27°56' W 082°26'0 0.0
2018-May-15 05:01N 27°56' W 082°26'0 0.0
2018-May-15 04:31N 27°56' W 082°26'0 0.0
2018-May-15 04:01N 27°56' W 082°26'0 0.0
2018-May-15 03:31N 27°56' W 082°26'0 0.0
2018-May-15 03:01N 27°56' W 082°26'0 0.0
2018-May-15 02:31N 27°56' W 082°26'0 0.0
2018-May-15 02:01N 27°56' W 082°26'0 0.0
2018-May-15 01:30N 27°56' W 082°26'0 0.0
2018-May-15 01:01N 27°56' W 082°26'0 0.0
2018-May-15 00:31N 27°56' W 082°26'0 0.0
2018-May-15 00:01N 27°56' W 082°26'0 0.0
2018-May-14 23:31N 27°56' W 082°26'0 0.0
2018-May-14 23:01N 27°56' W 082°26'0 0.0
2018-May-14 22:31N 27°56' W 082°26'0 0.0
2018-May-14 22:01N 27°56' W 082°26'0 0.0
2018-May-14 21:31N 27°56' W 082°26'0 0.0
2018-May-14 21:01N 27°56' W 082°26'0 0.0
2018-May-14 20:31N 27°56' W 082°26'0 0.2
2018-May-14 20:00N 27°56' W 082°26'0 0.4
2018-May-14 19:31N 27°56' W 082°26'1 2.9
2018-May-14 19:01N 27°54' W 082°26'1 1.2
2018-May-14 18:31N 27°54' W 082°25'1 1.2
2018-May-14 18:01N 27°54' W 082°26'2 3.4
2018-May-14 17:31N 27°56' W 082°26'0 0.0
2018-May-14 17:01N 27°56' W 082°26'0 0.0
2018-May-14 16:31N 27°56' W 082°26'0 0.0
2018-May-14 16:01N 27°56' W 082°26'0 0.0
2018-May-14 15:31N 27°56' W 082°26'0 0.0
2018-May-14 15:01N 27°56' W 082°26'0 0.0
2018-May-14 14:31N 27°56' W 082°26'0 0.0
2018-May-14 14:01N 27°56' W 082°26'0 0.0
2018-May-14 13:30N 27°56' W 082°26'0 0.0
2018-May-14 13:01N 27°56' W 082°26'0 0.0
2018-May-14 12:31N 27°56' W 082°26'0 0.0
2018-May-14 12:01N 27°56' W 082°26'0 0.0
2018-May-14 11:31N 27°56' W 082°26'0 0.0
2018-May-14 11:00N 27°56' W 082°26'0 0.0
2018-May-14 10:31N 27°56' W 082°26'0 0.0
2018-May-14 10:01N 27°56' W 082°26'0 0.0
2018-May-14 09:31N 27°56' W 082°26'0 0.0
2018-May-14 09:01N 27°56' W 082°26'0 0.0
2018-May-14 08:31N 27°56' W 082°26'0 0.0
2018-May-14 08:01N 27°56' W 082°26'0 0.0
2018-May-14 07:31N 27°56' W 082°26'0 0.0
2018-May-14 07:01N 27°56' W 082°26'0 0.0
2018-May-14 06:31N 27°56' W 082°26'0 0.0
2018-May-14 06:00N 27°56' W 082°26'0 0.0
2018-May-14 05:31N 27°56' W 082°26'1 1.8
2018-May-14 04:59N 27°55' W 082°27'2 3.1
2018-May-14 04:31N 27°57' W 082°27'0 0.8
2018-May-14 04:00N 27°56' W 082°27'2 4.1
2018-May-14 03:30N 27°54' W 082°26'1 2.6
2018-May-14 03:00N 27°53' W 082°26'1 2.9
2018-May-14 02:30N 27°55' W 082°26'0 0.0
2018-May-14 02:01N 27°55' W 082°26'0 0.0
2018-May-14 01:31N 27°55' W 082°26'0 0.0
2018-May-14 01:01N 27°55' W 082°26'0 0.0
2018-May-14 00:31N 27°55' W 082°26'1 1.9
2018-May-14 00:01N 27°55' W 082°27'2 4.7
2018-May-13 23:31N 27°53' W 082°26'510.8
2018-May-13 23:01N 27°48' W 082°29'510.1
2018-May-13 22:31N 27°44' W 082°32'6 9.4
2018-May-13 21:54N 27°39' W 082°35'2 0.9
2018-May-13 19:33N 27°41' W 082°35'112.2
2018-May-13 19:29N 27°42' W 082°34'611.6
2018-May-13 19:00N 27°47' W 082°31'4 8.4
2018-May-13 18:31N 27°50' W 082°34'2 3.4
2018-May-13 18:01N 27°52' W 082°33'0 0.3
2018-May-13 17:31N 27°52' W 082°33'0 0.0
2018-May-13 17:01N 27°52' W 082°33'0 0.0
2018-May-13 16:31N 27°52' W 082°33'0 0.0
2018-May-13 16:01N 27°52' W 082°33'0 0.0
2018-May-13 15:31N 27°52' W 082°33'0 0.0
2018-May-13 15:01N 27°52' W 082°33'0 0.0
2018-May-13 14:31N 27°52' W 082°33'0 0.0
2018-May-13 14:00N 27°52' W 082°33'0 0.0
2018-May-13 13:31N 27°52' W 082°33'0 0.0
2018-May-13 13:01N 27°52' W 082°33'0 0.0
2018-May-13 12:31N 27°52' W 082°33'0 0.0
2018-May-13 12:01N 27°52' W 082°33'0 0.0
2018-May-13 11:31N 27°52' W 082°33'0 0.0
2018-May-13 11:01N 27°52' W 082°33'0 0.0
2018-May-13 10:30N 27°52' W 082°33'0 0.0
2018-May-13 10:01N 27°52' W 082°33'0 0.0
2018-May-13 09:31N 27°52' W 082°33'0 0.0
2018-May-13 09:01N 27°52' W 082°33'0 0.0
2018-May-13 08:31N 27°52' W 082°33'0 0.0
2018-May-13 08:01N 27°52' W 082°33'0 0.0
2018-May-13 07:31N 27°52' W 082°33'0 0.0
2018-May-13 07:01N 27°52' W 082°33'0 0.0
2018-May-13 06:31N 27°52' W 082°33'0 0.0
2018-May-13 06:00N 27°52' W 082°33'0 0.0
2018-May-13 05:31N 27°52' W 082°33'0 0.0
2018-May-13 05:01N 27°52' W 082°33'0 0.0
2018-May-13 04:31N 27°52' W 082°33'0 0.0
2018-May-13 04:00N 27°52' W 082°33'0 0.0
2018-May-13 03:31N 27°52' W 082°33'0 0.0
2018-May-13 03:01N 27°52' W 082°33'0 0.0
2018-May-13 02:30N 27°52' W 082°33'0 0.0
2018-May-13 02:01N 27°52' W 082°33'0 0.0
2018-May-13 01:31N 27°52' W 082°33'0 0.0
2018-May-13 01:01N 27°52' W 082°33'0 0.0
2018-May-13 00:31N 27°52' W 082°33'0 0.0
2018-May-13 00:01N 27°52' W 082°33'0 0.0
2018-May-12 23:31N 27°52' W 082°33'0 0.0
2018-May-12 23:01N 27°52' W 082°33'0 0.0
2018-May-12 22:31N 27°52' W 082°33'0 0.0
2018-May-12 22:00N 27°52' W 082°33'0 0.0
2018-May-12 21:31N 27°52' W 082°33'0 0.0
2018-May-12 21:01N 27°52' W 082°33'0 0.0
2018-May-12 20:31N 27°52' W 082°33'0 0.0
2018-May-12 20:01N 27°52' W 082°33'0 0.0
2018-May-12 19:31N 27°52' W 082°33'0 0.0
2018-May-12 19:01N 27°52' W 082°33'0 0.2
2018-May-12 18:31N 27°52' W 082°33'0 0.7
2018-May-12 18:01N 27°52' W 082°33'3 5.3
2018-May-12 17:30N 27°49' W 082°34'4 8.5
2018-May-12 17:01N 27°48' W 082°30'5 9.6
2018-May-12 16:30N 27°52' W 082°27'3 6.9
2018-May-12 16:01N 27°55' W 082°27'0 0.1
2018-May-12 15:30N 27°55' W 082°27'0 0.0
2018-May-12 15:01N 27°55' W 082°27'1 2.5
2018-May-12 14:31N 27°56' W 082°26'0 0.0
2018-May-12 14:00N 27°56' W 082°26'0 0.0
2018-May-12 13:30N 27°56' W 082°26'0 0.0
2018-May-12 13:01N 27°56' W 082°26'0 0.0
2018-May-12 12:30N 27°56' W 082°26'0 0.0
2018-May-12 12:01N 27°56' W 082°26'0 0.0
2018-May-12 11:30N 27°56' W 082°26'0 0.0
2018-May-12 11:00N 27°56' W 082°26'0 0.0
2018-May-12 10:31N 27°56' W 082°26'0 0.0
2018-May-12 10:01N 27°56' W 082°26'0 0.0
2018-May-12 09:31N 27°56' W 082°26'0 0.0
2018-May-12 09:01N 27°56' W 082°26'0 0.0
2018-May-12 08:30N 27°56' W 082°26'0 0.0
2018-May-12 08:01N 27°56' W 082°26'0 0.0
2018-May-12 07:30N 27°56' W 082°26'0 0.0
2018-May-12 07:01N 27°56' W 082°26'0 0.0
2018-May-12 06:30N 27°56' W 082°26'0 0.0
2018-May-12 06:00N 27°56' W 082°26'0 0.0
2018-May-12 05:31N 27°56' W 082°26'0 0.0
2018-May-12 05:01N 27°56' W 082°26'0 0.0
2018-May-12 04:31N 27°56' W 082°26'0 0.0
2018-May-12 04:01N 27°56' W 082°26'0 0.0
2018-May-12 03:31N 27°56' W 082°26'0 0.0
2018-May-12 03:00N 27°56' W 082°26'0 0.0
2018-May-12 02:31N 27°56' W 082°26'0 0.0
2018-May-12 02:00N 27°56' W 082°26'0 0.0
2018-May-12 01:31N 27°56' W 082°26'0 0.0
2018-May-12 01:01N 27°56' W 082°26'0 0.0
2018-May-12 00:31N 27°56' W 082°26'0 0.0
2018-May-12 00:01N 27°56' W 082°26'0 0.0
2018-May-11 23:31N 27°56' W 082°26'0 0.0
2018-May-11 23:01N 27°56' W 082°26'0 0.0
2018-May-11 22:30N 27°56' W 082°26'0 0.0
2018-May-11 22:01N 27°56' W 082°26'0 0.0
2018-May-11 21:31N 27°56' W 082°26'0 0.0
2018-May-11 21:01N 27°56' W 082°26'0 0.0
2018-May-11 20:31N 27°56' W 082°26'0 0.0
2018-May-11 20:01N 27°56' W 082°26'0 0.0
2018-May-11 19:30N 27°56' W 082°26'0 0.0
2018-May-11 19:00N 27°56' W 082°26'0 0.0
2018-May-11 18:31N 27°56' W 082°26'0 0.0
2018-May-11 18:01N 27°56' W 082°26'0 0.0
2018-May-11 17:31N 27°56' W 082°26'0 0.0
2018-May-11 17:01N 27°56' W 082°26'0 0.0
2018-May-11 16:31N 27°56' W 082°26'0 0.0
2018-May-11 16:00N 27°56' W 082°26'0 0.0
2018-May-11 15:30N 27°56' W 082°26'0 0.0
2018-May-11 15:00N 27°56' W 082°26'0 0.0
2018-May-11 14:31N 27°56' W 082°26'0 0.0
2018-May-11 14:00N 27°56' W 082°26'0 0.2
2018-May-11 13:31N 27°56' W 082°26'2 3.6
2018-May-11 13:00N 27°54' W 082°25'0 0.0
2018-May-11 12:31N 27°54' W 082°25'4 7.0
2018-May-11 12:00N 27°51' W 082°26'2 4.7
2018-May-11 11:30N 27°51' W 082°24'0 0.1
2018-May-11 11:00N 27°51' W 082°24'2 4.6
2018-May-11 10:31N 27°51' W 082°26'1 2.2
2018-May-11 10:01N 27°50' W 082°27'4 7.2
2018-May-11 09:30N 27°54' W 082°26'1 2.0
2018-May-11 09:01N 27°55' W 082°26'0 0.0
2018-May-11 08:31N 27°55' W 082°26'0 0.0
2018-May-11 08:01N 27°55' W 082°26'0 0.0
2018-May-11 07:31N 27°55' W 082°26'1 1.5
2018-May-11 07:00N 27°54' W 082°26'0 0.8
2018-May-11 06:31N 27°54' W 082°25'2 3.9
2018-May-11 06:01N 27°56' W 082°26'0 0.0
2018-May-11 05:30N 27°56' W 082°26'0 0.0
2018-May-11 05:01N 27°56' W 082°26'0 0.0
2018-May-11 04:30N 27°56' W 082°26'0 0.0
2018-May-11 04:01N 27°56' W 082°26'0 0.0
2018-May-11 03:31N 27°56' W 082°26'0 0.0
2018-May-11 03:01N 27°56' W 082°26'0 0.0
2018-May-11 02:31N 27°56' W 082°26'0 0.0
2018-May-11 02:01N 27°56' W 082°26'0 0.0
2018-May-11 01:30N 27°56' W 082°26'0 0.0
2018-May-11 01:01N 27°56' W 082°26'0 0.0
2018-May-11 00:30N 27°56' W 082°26'0 0.0
2018-May-11 00:01N 27°56' W 082°26'2 3.4
2018-May-10 23:31N 27°54' W 082°26'2 4.1
2018-May-10 23:01N 27°56' W 082°27'0 0.7
2018-May-10 22:31N 27°56' W 082°27'0 0.2
2018-May-10 22:01N 27°56' W 082°27'0 0.0
2018-May-10 21:31N 27°56' W 082°27'1 1.6
2018-May-10 21:01N 27°57' W 082°27'0 0.2
2018-May-10 20:31N 27°57' W 082°27'0 0.0
2018-May-10 20:01N 27°57' W 082°27'0 0.0
2018-May-10 19:30N 27°57' W 082°27'2 3.3
2018-May-10 19:01N 27°55' W 082°27'1 2.1
2018-May-10 18:31N 27°56' W 082°26'0 0.0
2018-May-10 18:01N 27°56' W 082°26'0 0.0
2018-May-10 17:30N 27°56' W 082°26'0 0.0
2018-May-10 17:01N 27°56' W 082°26'0 0.0
2018-May-10 16:31N 27°56' W 082°26'0 0.0
2018-May-10 16:01N 27°56' W 082°26'0 0.0
2018-May-10 15:31N 27°56' W 082°26'0 0.0
2018-May-10 15:01N 27°56' W 082°26'0 0.0
2018-May-10 14:31N 27°56' W 082°26'0 0.0
2018-May-10 14:00N 27°56' W 082°26'0 0.0
2018-May-10 13:31N 27°56' W 082°26'0 0.0
2018-May-10 13:01N 27°56' W 082°26'0 0.0
2018-May-10 12:30N 27°56' W 082°26'0 0.0
2018-May-10 12:00N 27°56' W 082°26'0 0.0
2018-May-10 11:31N 27°56' W 082°26'0 0.0
2018-May-10 11:00N 27°56' W 082°26'0 0.0
2018-May-10 10:31N 27°56' W 082°26'0 0.0
2018-May-10 10:01N 27°56' W 082°26'0 0.0
2018-May-10 09:31N 27°56' W 082°26'0 0.0
2018-May-10 09:00N 27°56' W 082°26'0 0.0
2018-May-10 08:31N 27°56' W 082°26'0 0.0
2018-May-10 08:01N 27°56' W 082°26'0 0.0
2018-May-10 07:31N 27°56' W 082°26'0 0.0
2018-May-10 07:01N 27°56' W 082°26'0 0.0
2018-May-10 06:31N 27°56' W 082°26'0 0.0
2018-May-10 06:01N 27°56' W 082°26'0 0.0
2018-May-10 05:31N 27°56' W 082°26'0 0.0
2018-May-10 05:01N 27°56' W 082°26'0 0.0
2018-May-10 04:31N 27°56' W 082°26'0 0.0
2018-May-10 04:01N 27°56' W 082°26'1 2.2
2018-May-10 03:31N 27°55' W 082°26'2 3.6
2018-May-10 03:01N 27°56' W 082°27'1 1.1
2018-May-10 02:31N 27°57' W 082°27'0 0.8
2018-May-10 02:01N 27°57' W 082°27'0 0.4
2018-May-10 01:31N 27°56' W 082°27'1 1.3
2018-May-10 01:01N 27°56' W 082°27'1 1.9
2018-May-10 00:30N 27°57' W 082°27'0 0.0
2018-May-10 00:00N 27°57' W 082°27'0 0.0
2018-May-09 23:31N 27°57' W 082°27'1 1.4
2018-May-09 23:01N 27°56' W 082°27'0 0.1
2018-May-09 22:30N 27°56' W 082°27'1 1.8
2018-May-09 22:01N 27°55' W 082°27'0 0.4
2018-May-09 21:30N 27°55' W 082°27'0 0.9
2018-May-09 21:01N 27°55' W 082°26'0 0.0
2018-May-09 20:31N 27°55' W 082°26'0 0.0
2018-May-09 20:01N 27°55' W 082°26'0 0.0
2018-May-09 19:31N 27°55' W 082°26'0 0.0
2018-May-09 19:01N 27°55' W 082°26'1 2.7
2018-May-09 18:31N 27°53' W 082°26'5 9.3
2018-May-09 18:00N 27°49' W 082°27'4 8.8
2018-May-09 17:31N 27°46' W 082°31'6 9.9
2018-May-09 16:55N 27°41' W 082°34'3 6.4
2018-May-09 16:28N 27°38' W 082°34'0 0.0
2018-May-09 14:56N 27°38' W 082°34'0 0.3
2018-May-09 13:27N 27°38' W 082°34'0 0.0
2018-May-09 12:53N 27°38' W 082°34'3 2.9
2018-May-09 11:50N 27°41' W 082°35'3 9.8
2018-May-09 11:31N 27°43' W 082°33'4 8.7
2018-May-09 11:00N 27°47' W 082°32'4 7.7
2018-May-09 10:31N 27°51' W 082°34'1 2.8
2018-May-09 10:00N 27°52' W 082°33'0 0.1
2018-May-09 09:31N 27°52' W 082°33'0 0.0
2018-May-09 09:01N 27°52' W 082°33'0 0.0
2018-May-09 08:31N 27°52' W 082°33'0 0.0
2018-May-09 08:01N 27°52' W 082°33'0 0.0
2018-May-09 07:31N 27°52' W 082°33'0 0.0
2018-May-09 07:01N 27°52' W 082°33'0 0.0
2018-May-09 06:30N 27°52' W 082°33'0 0.0
2018-May-09 06:01N 27°52' W 082°33'0 0.0
2018-May-09 05:30N 27°52' W 082°33'0 0.0
2018-May-09 05:01N 27°52' W 082°33'0 0.0
2018-May-09 04:30N 27°52' W 082°33'0 0.0
2018-May-09 04:01N 27°52' W 082°33'0 0.5
2018-May-09 03:30N 27°52' W 082°33'4 8.7
2018-May-09 03:00N 27°47' W 082°33'510.8
2018-May-09 02:31N 27°48' W 082°28'510.8
2018-May-09 02:01N 27°54' W 082°26'1 2.9
2018-May-09 01:31N 27°55' W 082°27'0 0.4
2018-May-09 01:01N 27°55' W 082°27'2 4.1
2018-May-09 00:31N 27°53' W 082°27'1 1.9
2018-May-09 00:00N 27°54' W 082°26'2 4.4
2018-May-08 23:31N 27°56' W 082°26'0 0.0
2018-May-08 23:01N 27°56' W 082°26'0 0.0
2018-May-08 22:31N 27°56' W 082°26'0 0.0
2018-May-08 22:01N 27°56' W 082°26'0 0.0
2018-May-08 21:30N 27°56' W 082°26'0 0.0
2018-May-08 21:01N 27°56' W 082°26'0 0.0
2018-May-08 20:31N 27°56' W 082°26'0 0.0
2018-May-08 20:01N 27°56' W 082°26'0 0.0
2018-May-08 19:31N 27°56' W 082°26'0 0.0
2018-May-08 19:01N 27°56' W 082°26'0 0.0
2018-May-08 18:31N 27°56' W 082°26'0 0.0
2018-May-08 18:01N 27°56' W 082°26'0 0.0
2018-May-08 17:30N 27°56' W 082°26'0 0.0
2018-May-08 17:01N 27°56' W 082°26'0 0.0
2018-May-08 16:31N 27°56' W 082°26'1 1.8
2018-May-08 16:00N 27°55' W 082°26'2 3.2
2018-May-08 15:30N 27°57' W 082°27'1 1.2
2018-May-08 15:01N 27°57' W 082°27'0 0.2
2018-May-08 14:31N 27°57' W 082°27'2 3.8
2018-May-08 14:01N 27°55' W 082°27'0 0.2
2018-May-08 13:30N 27°55' W 082°27'1 1.7
2018-May-08 13:01N 27°55' W 082°26'1 1.3
2018-May-08 12:30N 27°56' W 082°26'511.0
2018-May-08 12:01N 27°50' W 082°27'510.7
2018-May-08 11:30N 27°47' W 082°32'4 8.1
2018-May-08 11:01N 27°51' W 082°34'1 2.7
2018-May-08 10:30N 27°52' W 082°33'0 0.2
2018-May-08 10:01N 27°52' W 082°33'0 0.4
2018-May-08 09:30N 27°52' W 082°33'0 0.0
2018-May-08 09:00N 27°52' W 082°33'0 0.0
2018-May-08 08:31N 27°52' W 082°33'0 0.0
2018-May-08 08:01N 27°52' W 082°33'0 0.0
2018-May-08 07:29N 27°52' W 082°33'0 0.0
2018-May-08 07:00N 27°52' W 082°33'0 0.0
2018-May-08 06:31N 27°52' W 082°33'0 0.0
2018-May-08 06:00N 27°52' W 082°33'0 0.0
2018-May-08 05:31N 27°52' W 082°33'0 0.0
2018-May-08 05:01N 27°52' W 082°33'0 0.0
2018-May-08 04:31N 27°52' W 082°33'0 0.0
2018-May-08 04:00N 27°52' W 082°33'0 0.0
2018-May-08 03:30N 27°52' W 082°33'0 0.0
2018-May-08 03:01N 27°52' W 082°33'0 0.0
2018-May-08 02:31N 27°52' W 082°33'0 0.0
2018-May-08 02:01N 27°52' W 082°33'0 0.0
2018-May-08 01:31N 27°52' W 082°33'0 0.0
2018-May-08 01:01N 27°52' W 082°33'0 0.4
2018-May-08 00:31N 27°52' W 082°33'1 1.3
2018-May-08 00:01N 27°51' W 082°33'3 6.9
2018-May-07 23:30N 27°48' W 082°34'611.4
2018-May-07 22:59N 27°48' W 082°28'611.9
2018-May-07 22:30N 27°54' W 082°26'1 2.3
2018-May-07 22:01N 27°55' W 082°27'0 0.0
2018-May-07 21:31N 27°55' W 082°27'1 1.3
2018-May-07 21:00N 27°54' W 082°26'5 9.7
2018-May-07 20:31N 27°50' W 082°27'510.3
2018-May-07 19:59N 27°47' W 082°32'4 7.6
2018-May-07 19:31N 27°51' W 082°34'1 2.5
2018-May-07 19:00N 27°52' W 082°33'0 0.8
2018-May-07 18:30N 27°51' W 082°33'5 9.5
2018-May-07 18:00N 27°47' W 082°36'5 9.2
2018-May-07 17:28N 27°42' W 082°37'5 0.9
2018-May-07 11:44N 27°38' W 082°34'0 0.4
2018-May-07 11:08N 27°38' W 082°34'2 4.3
2018-May-07 10:34N 27°40' W 082°36'0 0.1
2018-May-07 10:30N 27°40' W 082°36'0 0.2
2018-May-07 09:58N 27°39' W 082°36'0 0.5
2018-May-07 09:28N 27°40' W 082°36'1 0.6
2018-May-07 07:27N 27°39' W 082°35'1 0.1
2018-May-06 23:13N 27°38' W 082°34'2 0.8
2018-May-06 20:26N 27°40' W 082°36'410.7
2018-May-06 20:01N 27°43' W 082°32'4 8.6
2018-May-06 19:30N 27°47' W 082°33'4 8.6
2018-May-06 19:01N 27°52' W 082°33'0 0.7
2018-May-06 18:30N 27°52' W 082°33'0 0.1
2018-May-06 18:01N 27°52' W 082°33'2 3.7
2018-May-06 17:31N 27°50' W 082°34'2 4.2
2018-May-06 17:01N 27°48' W 082°34'4 7.5
2018-May-06 16:31N 27°45' W 082°31'7 9.2
2018-May-06 15:45N 27°40' W 082°36'2 1.1
2018-May-06 13:26N 27°38' W 082°34'3 2.2
2018-May-06 12:11N 27°40' W 082°36'311.0
2018-May-06 11:58N 27°42' W 082°33'511.3
2018-May-06 11:31N 27°47' W 082°31'510.7
2018-May-06 11:00N 27°50' W 082°27'510.6
2018-May-06 10:30N 27°55' W 082°26'1 1.6
2018-May-06 10:00N 27°56' W 082°26'0 0.0
2018-May-06 09:31N 27°56' W 082°26'0 0.0
2018-May-06 09:00N 27°56' W 082°26'0 0.0
2018-May-06 08:30N 27°56' W 082°26'0 0.0
2018-May-06 08:00N 27°56' W 082°26'0 0.0
2018-May-06 07:31N 27°56' W 082°26'0 0.0
2018-May-06 07:01N 27°56' W 082°26'0 0.0
2018-May-06 06:31N 27°56' W 082°26'0 0.0
2018-May-06 06:01N 27°56' W 082°26'0 0.0
2018-May-06 05:31N 27°56' W 082°26'0 0.0
2018-May-06 05:01N 27°56' W 082°26'0 0.0
2018-May-06 04:31N 27°56' W 082°26'0 0.0
2018-May-06 04:01N 27°56' W 082°26'0 0.0
2018-May-06 03:30N 27°56' W 082°26'0 0.0
2018-May-06 03:01N 27°56' W 082°26'0 0.0
2018-May-06 02:31N 27°56' W 082°26'0 0.0
2018-May-06 02:00N 27°56' W 082°26'0 0.0
2018-May-06 01:31N 27°56' W 082°26'0 0.0
2018-May-06 01:01N 27°56' W 082°26'0 0.0
2018-May-06 00:31N 27°56' W 082°26'0 0.0
2018-May-06 00:01N 27°56' W 082°26'0 0.0
2018-May-05 23:31N 27°56' W 082°26'0 0.0
2018-May-05 23:01N 27°56' W 082°26'0 0.0
2018-May-05 22:31N 27°56' W 082°26'0 0.0
2018-May-05 22:00N 27°56' W 082°26'0 0.0
2018-May-05 21:31N 27°56' W 082°26'0 0.0
2018-May-05 21:01N 27°56' W 082°26'0 0.0
2018-May-05 20:30N 27°56' W 082°26'2 3.9
2018-May-05 20:00N 27°54' W 082°25'0 0.1
2018-May-05 19:31N 27°54' W 082°25'1 1.2
2018-May-05 19:01N 27°54' W 082°26'1 2.9
2018-May-05 18:31N 27°53' W 082°26'2 4.2
2018-May-05 18:01N 27°55' W 082°27'0 0.1
2018-May-05 17:31N 27°55' W 082°27'0 0.0
2018-May-05 17:01N 27°55' W 082°27'1 1.7
2018-May-05 16:30N 27°55' W 082°26'0 0.0
2018-May-05 16:01N 27°55' W 082°26'0 0.0
2018-May-05 15:31N 27°55' W 082°26'0 0.0
2018-May-05 15:00N 27°55' W 082°26'0 0.0
2018-May-05 14:31N 27°55' W 082°26'  

Dump ship's entire track history